createdAt,value
2018-12-08T00:00:26.990Z,22.56
2018-12-08T00:01:27.010Z,22.48
2018-12-08T00:02:26.923Z,22.56
2018-12-08T00:03:26.897Z,22.48
2018-12-08T00:04:26.859Z,22.56
2018-12-08T00:05:26.828Z,22.51
2018-12-08T00:06:26.798Z,22.51
2018-12-08T00:07:26.773Z,22.52
2018-12-08T00:08:26.743Z,22.45
2018-12-08T00:09:26.710Z,22.45
2018-12-08T00:10:26.687Z,22.51
2018-12-08T00:11:26.875Z,22.79
2018-12-08T00:12:26.845Z,22.76
2018-12-08T00:13:26.590Z,22.64
2018-12-08T00:14:26.542Z,22.63
2018-12-08T00:15:26.505Z,22.63
2018-12-08T00:16:26.487Z,22.64
2018-12-08T00:17:26.447Z,22.79
2018-12-08T00:18:26.390Z,22.84
2018-12-08T00:19:26.467Z,22.72
2018-12-08T00:20:26.380Z,22.64
2018-12-08T00:21:26.284Z,22.59
2018-12-08T00:22:26.336Z,22.81
2018-12-08T00:23:26.226Z,22.88
2018-12-08T00:24:26.168Z,22.82
2018-12-08T00:25:26.453Z,22.74
2018-12-08T00:26:26.095Z,22.63
2018-12-08T00:27:26.078Z,22.72
2018-12-08T00:28:26.103Z,22.84
2018-12-08T00:29:26.039Z,22.84
2018-12-08T00:30:26.008Z,22.85
2018-12-08T00:31:25.961Z,22.84
2018-12-08T00:32:25.915Z,22.84
2018-12-08T00:33:25.913Z,22.74
2018-12-08T00:34:25.886Z,22.66
2018-12-08T00:35:25.812Z,22.64
2018-12-08T00:36:25.765Z,22.61
2018-12-08T00:37:25.722Z,22.78
2018-12-08T00:38:25.680Z,22.64
2018-12-08T00:39:25.740Z,22.64
2018-12-08T00:40:25.653Z,22.56
2018-12-08T00:41:25.596Z,22.51
2018-12-08T00:42:25.578Z,22.36
2018-12-08T00:43:25.572Z,22.33
2018-12-08T00:44:25.622Z,22.38
2018-12-08T00:45:25.491Z,22.31
2018-12-08T00:46:25.459Z,22.36
2018-12-08T00:47:25.424Z,22.35
2018-12-08T00:48:25.385Z,22.29
2018-12-08T00:49:25.368Z,22.27
2018-12-08T00:50:25.311Z,22.35
2018-12-08T00:51:25.292Z,22.21
2018-12-08T00:52:25.238Z,22.29
2018-12-08T00:53:25.204Z,22.21
2018-12-08T00:54:25.182Z,22.23
2018-12-08T00:55:25.134Z,22.30
2018-12-08T00:56:25.125Z,22.35
2018-12-08T00:57:25.097Z,22.31
2018-12-08T00:58:25.064Z,22.30
2018-12-08T00:59:25.142Z,22.27
2018-12-08T01:00:24.997Z,22.23
2018-12-08T01:01:24.968Z,22.36
2018-12-08T01:02:24.945Z,22.30
2018-12-08T01:03:24.877Z,22.33
2018-12-08T01:04:24.858Z,22.24
2018-12-08T01:05:24.890Z,22.27
2018-12-08T01:06:24.786Z,22.30
2018-12-08T01:07:24.754Z,22.21
2018-12-08T01:08:24.727Z,22.26
2018-12-08T01:09:24.727Z,22.15
2018-12-08T01:10:24.667Z,22.19
2018-12-08T01:11:24.637Z,22.21
2018-12-08T01:12:24.605Z,22.17
2018-12-08T01:13:24.579Z,22.19
2018-12-08T01:14:24.557Z,22.19
2018-12-08T01:15:24.532Z,22.19
2018-12-08T01:16:24.486Z,22.15
2018-12-08T01:17:24.452Z,22.06
2018-12-08T01:18:24.427Z,22.19
2018-12-08T01:19:24.395Z,22.09
2018-12-08T01:20:24.487Z,22.09
2018-12-08T01:21:24.357Z,22.09
2018-12-08T01:22:24.340Z,22.05
2018-12-08T01:23:24.303Z,22.04
2018-12-08T01:24:24.278Z,22.08
2018-12-08T01:25:24.276Z,22.04
2018-12-08T01:26:24.207Z,22.05
2018-12-08T01:27:24.177Z,22.02
2018-12-08T01:28:24.157Z,22.05
2018-12-08T01:29:24.129Z,22.08
2018-12-08T01:30:24.125Z,22.04
2018-12-08T01:31:24.083Z,22.08
2018-12-08T01:32:24.073Z,22.08
2018-12-08T01:33:24.045Z,21.99
2018-12-08T01:34:24.018Z,22.04
2018-12-08T01:35:24.015Z,22.05
2018-12-08T01:36:23.980Z,22.08
2018-12-08T01:37:23.972Z,22.09
2018-12-08T01:38:23.946Z,22.06
2018-12-08T01:39:23.919Z,22.04
2018-12-08T01:40:23.905Z,21.98
2018-12-08T01:41:23.863Z,21.94
2018-12-08T01:42:23.835Z,21.96
2018-12-08T01:43:23.805Z,21.93
2018-12-08T01:44:23.781Z,22.01
2018-12-08T01:45:23.770Z,21.96
2018-12-08T01:46:23.772Z,22.02
2018-12-08T01:47:23.705Z,21.96
2018-12-08T01:48:23.678Z,21.96
2018-12-08T01:49:23.649Z,21.99
2018-12-08T01:50:23.670Z,21.96
2018-12-08T01:51:23.627Z,21.91
2018-12-08T01:52:23.602Z,21.94
2018-12-08T01:53:23.582Z,21.91
2018-12-08T01:54:23.564Z,21.91
2018-12-08T01:55:23.543Z,21.86
2018-12-08T01:56:23.549Z,21.91
2018-12-08T01:57:23.510Z,21.85
2018-12-08T01:58:23.492Z,21.91
2018-12-08T01:59:23.469Z,21.86
2018-12-08T02:00:23.452Z,21.85
2018-12-08T02:01:23.437Z,21.82
2018-12-08T02:02:23.402Z,21.86
2018-12-08T02:03:23.382Z,21.82
2018-12-08T02:04:23.362Z,21.90
2018-12-08T02:05:23.356Z,21.85
2018-12-08T02:06:23.337Z,21.86
2018-12-08T02:07:23.302Z,21.79
2018-12-08T02:08:23.288Z,21.79
2018-12-08T02:09:23.260Z,21.77
2018-12-08T02:10:23.247Z,21.81
2018-12-08T02:11:25.076Z,21.77
2018-12-08T02:12:23.204Z,21.75
2018-12-08T02:13:23.188Z,21.77
2018-12-08T02:14:23.172Z,21.71
2018-12-08T02:15:23.159Z,21.71
2018-12-08T02:16:23.142Z,21.68
2018-12-08T02:17:23.094Z,21.71
2018-12-08T02:18:23.069Z,21.73
2018-12-08T02:19:23.049Z,21.67
2018-12-08T02:20:23.024Z,21.73
2018-12-08T02:21:23.016Z,21.73
2018-12-08T02:22:22.979Z,21.75
2018-12-08T02:23:22.951Z,21.71
2018-12-08T02:24:22.928Z,21.68
2018-12-08T02:25:22.910Z,21.73
2018-12-08T02:26:22.900Z,21.70
2018-12-08T02:27:22.855Z,21.66
2018-12-08T02:28:22.837Z,21.73
2018-12-08T02:29:22.813Z,21.73
2018-12-08T02:30:22.795Z,21.70
2018-12-08T02:31:22.820Z,21.61
2018-12-08T02:32:22.765Z,21.71
2018-12-08T02:33:22.741Z,21.73
2018-12-08T02:34:22.718Z,21.68
2018-12-08T02:35:22.694Z,21.77
2018-12-08T02:36:22.671Z,21.67
2018-12-08T02:37:22.663Z,21.64
2018-12-08T02:38:22.621Z,21.61
2018-12-08T02:39:22.598Z,21.74
2018-12-08T02:40:22.567Z,21.73
2018-12-08T02:41:22.538Z,21.70
2018-12-08T02:42:22.533Z,21.67
2018-12-08T02:43:22.481Z,21.67
2018-12-08T02:44:22.446Z,21.67
2018-12-08T02:45:22.419Z,21.71
2018-12-08T02:46:22.391Z,21.67
2018-12-08T02:47:22.373Z,21.70
2018-12-08T02:48:22.329Z,21.67
2018-12-08T02:49:22.308Z,21.67
2018-12-08T02:50:22.280Z,21.74
2018-12-08T02:51:22.254Z,21.68
2018-12-08T02:52:22.243Z,21.66
2018-12-08T02:53:22.203Z,21.68
2018-12-08T02:54:22.169Z,21.68
2018-12-08T02:55:22.150Z,21.59
2018-12-08T02:56:22.115Z,21.67
2018-12-08T02:57:22.104Z,21.66
2018-12-08T02:58:22.068Z,21.68
2018-12-08T02:59:22.048Z,21.67
2018-12-08T03:00:22.035Z,21.70
2018-12-08T03:01:22.002Z,21.63
2018-12-08T03:02:22.007Z,21.67
2018-12-08T03:03:21.946Z,21.64
2018-12-08T03:04:21.927Z,21.64
2018-12-08T03:05:21.920Z,21.63
2018-12-08T03:06:21.889Z,21.64
2018-12-08T03:07:21.877Z,21.68
2018-12-08T03:08:21.868Z,21.67
2018-12-08T03:09:21.817Z,21.66
2018-12-08T03:10:21.798Z,21.64
2018-12-08T03:11:21.768Z,21.68
2018-12-08T03:12:21.749Z,21.59
2018-12-08T03:13:21.748Z,21.66
2018-12-08T03:14:21.715Z,21.61
2018-12-08T03:15:21.694Z,21.58
2018-12-08T03:16:21.667Z,21.58
2018-12-08T03:17:21.639Z,21.63
2018-12-08T03:18:21.634Z,21.58
2018-12-08T03:19:21.591Z,21.68
2018-12-08T03:20:21.595Z,21.61
2018-12-08T03:21:21.553Z,21.61
2018-12-08T03:22:21.527Z,21.63
2018-12-08T03:23:21.536Z,21.58
2018-12-08T03:24:21.503Z,21.58
2018-12-08T03:25:21.493Z,21.58
2018-12-08T03:26:21.473Z,21.58
2018-12-08T03:27:21.441Z,21.59
2018-12-08T03:28:21.441Z,21.58
2018-12-08T03:29:21.392Z,21.66
2018-12-08T03:30:21.360Z,21.63
2018-12-08T03:31:21.329Z,21.58
2018-12-08T03:32:21.322Z,21.61
2018-12-08T03:33:21.288Z,21.59
2018-12-08T03:34:21.236Z,21.59
2018-12-08T03:35:21.208Z,21.59
2018-12-08T03:36:21.183Z,21.63
2018-12-08T03:37:21.157Z,21.63
2018-12-08T03:38:21.130Z,21.53
2018-12-08T03:39:21.087Z,21.63
2018-12-08T03:40:21.050Z,21.58
2018-12-08T03:41:21.011Z,21.63
2018-12-08T03:42:21.078Z,21.63
2018-12-08T03:43:20.961Z,21.58
2018-12-08T03:44:20.907Z,21.67
2018-12-08T03:45:20.877Z,21.53
2018-12-08T03:46:20.839Z,21.63
2018-12-08T03:47:20.807Z,21.59
2018-12-08T03:48:20.790Z,21.63
2018-12-08T03:49:20.747Z,21.63
2018-12-08T03:50:20.717Z,21.56
2018-12-08T03:51:20.694Z,21.61
2018-12-08T03:52:20.659Z,21.52
2018-12-08T03:53:20.645Z,21.63
2018-12-08T03:54:20.607Z,21.63
2018-12-08T03:55:20.578Z,21.55
2018-12-08T03:56:20.573Z,21.55
2018-12-08T03:57:20.526Z,21.59
2018-12-08T03:58:20.519Z,21.61
2018-12-08T03:59:20.485Z,21.56
2018-12-08T04:00:20.468Z,21.49
2018-12-08T04:01:20.433Z,21.55
2018-12-08T04:02:20.411Z,21.56
2018-12-08T04:03:20.424Z,21.53
2018-12-08T04:04:20.371Z,21.61
2018-12-08T04:05:20.350Z,21.55
2018-12-08T04:06:20.330Z,21.58
2018-12-08T04:07:20.309Z,21.48
2018-12-08T04:08:20.290Z,21.58
2018-12-08T04:09:20.287Z,21.45
2018-12-08T04:10:20.247Z,21.53
2018-12-08T04:11:20.227Z,21.51
2018-12-08T04:12:20.199Z,21.55
2018-12-08T04:13:20.187Z,21.59
2018-12-08T04:14:20.182Z,21.51
2018-12-08T04:15:20.150Z,21.45
2018-12-08T04:16:20.124Z,21.56
2018-12-08T04:17:20.093Z,21.58
2018-12-08T04:18:20.071Z,21.51
2018-12-08T04:19:20.061Z,21.56
2018-12-08T04:20:27.060Z,21.56
2018-12-08T04:21:19.997Z,21.56
2018-12-08T04:22:19.971Z,21.53
2018-12-08T04:23:19.949Z,21.51
2018-12-08T04:24:19.940Z,21.49
2018-12-08T04:25:19.896Z,21.49
2018-12-08T04:26:19.877Z,21.55
2018-12-08T04:27:19.860Z,21.56
2018-12-08T04:28:19.833Z,21.52
2018-12-08T04:29:19.823Z,21.53
2018-12-08T04:30:19.792Z,21.56
2018-12-08T04:31:19.764Z,21.56
2018-12-08T04:32:19.758Z,21.58
2018-12-08T04:33:19.725Z,21.55
2018-12-08T04:34:19.717Z,21.56
2018-12-08T04:35:19.693Z,21.58
2018-12-08T04:36:19.661Z,21.55
2018-12-08T04:37:19.640Z,21.59
2018-12-08T04:38:19.618Z,21.61
2018-12-08T04:39:19.610Z,21.55
2018-12-08T04:40:19.574Z,21.59
2018-12-08T04:41:19.556Z,21.56
2018-12-08T04:42:19.539Z,21.53
2018-12-08T04:43:19.521Z,21.61
2018-12-08T04:44:19.512Z,21.49
2018-12-08T04:45:19.471Z,21.56
2018-12-08T04:46:19.448Z,21.48
2018-12-08T04:47:19.434Z,21.45
2018-12-08T04:48:19.387Z,21.46
2018-12-08T04:49:19.370Z,21.52
2018-12-08T04:50:19.347Z,21.46
2018-12-08T04:51:19.314Z,21.46
2018-12-08T04:52:19.302Z,21.53
2018-12-08T04:53:19.284Z,21.61
2018-12-08T04:54:19.272Z,21.55
2018-12-08T04:55:19.242Z,21.51
2018-12-08T04:56:19.224Z,21.52
2018-12-08T04:57:19.204Z,21.56
2018-12-08T04:58:19.180Z,21.52
2018-12-08T04:59:19.165Z,21.58
2018-12-08T05:00:19.130Z,21.59
2018-12-08T05:01:19.113Z,21.56
2018-12-08T05:02:19.095Z,21.56
2018-12-08T05:03:19.090Z,21.53
2018-12-08T05:04:19.118Z,21.53
2018-12-08T05:05:19.081Z,21.55
2018-12-08T05:06:19.054Z,21.48
2018-12-08T05:07:19.034Z,21.61
2018-12-08T05:08:19.019Z,21.56
2018-12-08T05:09:18.988Z,21.53
2018-12-08T05:10:18.995Z,21.52
2018-12-08T05:11:18.956Z,21.53
2018-12-08T05:12:18.936Z,21.53
2018-12-08T05:13:18.916Z,21.56
2018-12-08T05:14:18.896Z,21.46
2018-12-08T05:15:18.892Z,21.55
2018-12-08T05:16:18.857Z,21.55
2018-12-08T05:17:18.838Z,21.48
2018-12-08T05:18:18.826Z,21.63
2018-12-08T05:19:18.804Z,21.51
2018-12-08T05:20:18.795Z,21.55
2018-12-08T05:21:18.756Z,21.55
2018-12-08T05:22:18.731Z,21.53
2018-12-08T05:23:18.704Z,21.52
2018-12-08T05:24:18.676Z,21.49
2018-12-08T05:25:18.664Z,21.51
2018-12-08T05:26:18.624Z,21.48
2018-12-08T05:27:18.601Z,21.53
2018-12-08T05:28:18.578Z,21.55
2018-12-08T05:29:18.549Z,21.56
2018-12-08T05:30:18.546Z,21.53
2018-12-08T05:31:18.502Z,21.48
2018-12-08T05:32:18.472Z,21.52
2018-12-08T05:33:18.445Z,21.58
2018-12-08T05:34:18.437Z,21.51
2018-12-08T05:35:18.415Z,21.53
2018-12-08T05:36:18.367Z,21.56
2018-12-08T05:37:18.361Z,21.53
2018-12-08T05:38:18.315Z,21.51
2018-12-08T05:39:18.281Z,21.52
2018-12-08T05:40:18.265Z,21.53
2018-12-08T05:41:18.238Z,21.53
2018-12-08T05:42:18.206Z,21.48
2018-12-08T05:43:18.193Z,21.49
2018-12-08T05:44:18.169Z,21.49
2018-12-08T05:45:18.159Z,21.53
2018-12-08T05:46:18.115Z,21.51
2018-12-08T05:47:18.088Z,21.55
2018-12-08T05:48:18.058Z,21.51
2018-12-08T05:49:18.027Z,21.49
2018-12-08T05:50:18.023Z,21.48
2018-12-08T05:51:17.971Z,21.46
2018-12-08T05:52:17.945Z,21.49
2018-12-08T05:53:17.926Z,21.43
2018-12-08T05:54:17.913Z,21.49
2018-12-08T05:55:17.880Z,21.38
2018-12-08T05:56:17.828Z,21.43
2018-12-08T05:57:17.799Z,21.49
2018-12-08T05:58:17.769Z,21.51
2018-12-08T05:59:17.740Z,21.52
2018-12-08T06:00:17.733Z,21.46
2018-12-08T06:01:17.793Z,21.46
2018-12-08T06:02:17.696Z,21.51
2018-12-08T06:03:17.677Z,21.52
2018-12-08T06:04:17.652Z,21.55
2018-12-08T06:05:17.657Z,21.38
2018-12-08T06:06:17.603Z,21.56
2018-12-08T06:07:17.593Z,21.51
2018-12-08T06:08:17.556Z,21.49
2018-12-08T06:09:17.523Z,21.55
2018-12-08T06:10:17.497Z,21.53
2018-12-08T06:11:17.482Z,21.56
2018-12-08T06:12:17.443Z,21.49
2018-12-08T06:13:17.419Z,21.56
2018-12-08T06:14:17.398Z,21.56
2018-12-08T06:15:17.373Z,21.49
2018-12-08T06:16:17.368Z,21.46
2018-12-08T06:17:17.339Z,21.53
2018-12-08T06:18:17.322Z,21.55
2018-12-08T06:19:17.300Z,21.43
2018-12-08T06:20:17.310Z,21.49
2018-12-08T06:21:17.279Z,21.52
2018-12-08T06:22:17.244Z,21.49
2018-12-08T06:23:17.227Z,21.53
2018-12-08T06:24:17.207Z,21.48
2018-12-08T06:25:17.207Z,21.51
2018-12-08T06:26:17.157Z,21.49
2018-12-08T06:27:17.129Z,21.52
2018-12-08T06:28:17.103Z,21.53
2018-12-08T06:29:17.079Z,21.48
2018-12-08T06:30:17.057Z,21.53
2018-12-08T06:31:17.046Z,21.49
2018-12-08T06:32:17.005Z,21.46
2018-12-08T06:33:16.971Z,21.48
2018-12-08T06:34:16.941Z,21.52
2018-12-08T06:35:16.915Z,21.48
2018-12-08T06:36:16.897Z,21.52
2018-12-08T06:37:16.862Z,21.49
2018-12-08T06:38:16.855Z,21.53
2018-12-08T06:39:16.835Z,21.48
2018-12-08T06:40:16.834Z,21.49
2018-12-08T06:41:16.803Z,21.49
2018-12-08T06:42:16.764Z,21.51
2018-12-08T06:43:16.725Z,21.45
2018-12-08T06:44:16.697Z,21.40
2018-12-08T06:45:16.664Z,21.37
2018-12-08T06:46:16.643Z,21.49
2018-12-08T06:47:16.606Z,21.38
2018-12-08T06:48:16.701Z,21.40
2018-12-08T06:49:16.528Z,21.42
2018-12-08T06:50:16.498Z,21.36
2018-12-08T06:51:16.478Z,21.49
2018-12-08T06:52:16.449Z,21.42
2018-12-08T06:53:16.406Z,21.45
2018-12-08T06:54:16.376Z,21.37
2018-12-08T06:55:16.350Z,21.42
2018-12-08T06:56:16.324Z,21.38
2018-12-08T06:57:16.273Z,21.46
2018-12-08T06:58:16.252Z,21.38
2018-12-08T06:59:16.211Z,21.34
2018-12-08T07:00:16.190Z,21.38
2018-12-08T07:01:16.174Z,21.49
2018-12-08T07:02:16.133Z,21.43
2018-12-08T07:03:16.106Z,21.34
2018-12-08T07:04:16.082Z,21.42
2018-12-08T07:05:16.044Z,21.43
2018-12-08T07:06:16.023Z,21.40
2018-12-08T07:07:15.982Z,21.38
2018-12-08T07:08:15.964Z,21.43
2018-12-08T07:09:15.938Z,21.38
2018-12-08T07:10:15.908Z,21.48
2018-12-08T07:11:15.914Z,21.48
2018-12-08T07:12:15.859Z,21.48
2018-12-08T07:13:15.828Z,21.48
2018-12-08T07:14:15.806Z,21.48
2018-12-08T07:15:15.789Z,21.37
2018-12-08T07:16:15.785Z,21.49
2018-12-08T07:17:15.724Z,21.48
2018-12-08T07:18:15.699Z,21.49
2018-12-08T07:19:15.669Z,21.43
2018-12-08T07:20:15.645Z,21.42
2018-12-08T07:21:15.655Z,21.38
2018-12-08T07:22:15.596Z,21.46
2018-12-08T07:23:15.578Z,21.42
2018-12-08T07:24:15.546Z,21.51
2018-12-08T07:25:15.516Z,21.46
2018-12-08T07:26:15.472Z,21.43
2018-12-08T07:27:15.472Z,21.49
2018-12-08T07:28:15.398Z,21.42
2018-12-08T07:29:15.376Z,21.38
2018-12-08T07:30:15.328Z,21.38
2018-12-08T07:31:15.295Z,21.53
2018-12-08T07:32:15.279Z,21.46
2018-12-08T07:33:15.248Z,21.45
2018-12-08T07:34:15.198Z,21.42
2018-12-08T07:35:15.158Z,21.49
2018-12-08T07:36:15.131Z,21.36
2018-12-08T07:37:15.119Z,21.36
2018-12-08T07:38:15.069Z,21.43
2018-12-08T07:39:15.037Z,21.45
2018-12-08T07:40:15.002Z,21.40
2018-12-08T07:41:14.980Z,21.38
2018-12-08T07:42:14.963Z,21.42
2018-12-08T07:43:14.913Z,21.42
2018-12-08T07:44:14.882Z,21.45
2018-12-08T07:45:15.226Z,21.40
2018-12-08T07:46:14.822Z,21.40
2018-12-08T07:47:14.800Z,21.40
2018-12-08T07:48:14.762Z,21.38
2018-12-08T07:49:14.728Z,21.38
2018-12-08T07:50:14.692Z,21.46
2018-12-08T07:51:14.664Z,21.40
2018-12-08T07:52:14.656Z,21.46
2018-12-08T07:53:14.601Z,21.34
2018-12-08T07:54:14.572Z,21.38
2018-12-08T07:55:14.547Z,21.37
2018-12-08T07:56:14.518Z,21.37
2018-12-08T07:57:14.509Z,21.40
2018-12-08T07:58:14.497Z,21.40
2018-12-08T07:59:14.442Z,21.36
2018-12-08T08:00:14.415Z,21.38
2018-12-08T08:01:14.392Z,21.38
2018-12-08T08:02:14.417Z,21.37
2018-12-08T08:03:14.345Z,21.36
2018-12-08T08:04:14.314Z,21.31
2018-12-08T08:05:14.299Z,21.42
2018-12-08T08:06:14.277Z,21.38
2018-12-08T08:07:14.225Z,21.31
2018-12-08T08:08:14.212Z,21.37
2018-12-08T08:09:14.172Z,21.40
2018-12-08T08:10:14.145Z,21.43
2018-12-08T08:11:14.111Z,21.40
2018-12-08T08:12:14.077Z,21.34
2018-12-08T08:13:14.061Z,21.43
2018-12-08T08:14:14.001Z,21.37
2018-12-08T08:15:13.976Z,21.38
2018-12-08T08:16:13.943Z,21.40
2018-12-08T08:17:13.942Z,21.42
2018-12-08T08:18:13.889Z,21.43
2018-12-08T08:19:13.839Z,21.42
2018-12-08T08:20:13.812Z,21.37
2018-12-08T08:21:13.783Z,21.38
2018-12-08T08:22:13.767Z,21.37
2018-12-08T08:23:13.750Z,21.48
2018-12-08T08:24:13.707Z,21.38
2018-12-08T08:25:13.680Z,21.42
2018-12-08T08:26:13.693Z,21.42
2018-12-08T08:27:13.620Z,21.43
2018-12-08T08:28:13.607Z,21.38
2018-12-08T08:29:13.574Z,21.43
2018-12-08T08:30:13.535Z,21.40
2018-12-08T08:31:13.496Z,21.30
2018-12-08T08:32:13.466Z,21.38
2018-12-08T08:33:13.445Z,21.33
2018-12-08T08:34:13.407Z,21.37
2018-12-08T08:35:13.365Z,21.36
2018-12-08T08:36:13.376Z,21.46
2018-12-08T08:37:13.338Z,21.36
2018-12-08T08:38:13.351Z,21.34
2018-12-08T08:39:13.313Z,21.43
2018-12-08T08:40:13.270Z,21.43
2018-12-08T08:41:13.246Z,21.40
2018-12-08T08:42:13.209Z,21.34
2018-12-08T08:43:13.197Z,21.34
2018-12-08T08:44:13.154Z,21.37
2018-12-08T08:45:13.126Z,21.36
2018-12-08T08:46:13.097Z,21.45
2018-12-08T08:47:13.065Z,21.43
2018-12-08T08:48:13.056Z,21.37
2018-12-08T08:49:13.025Z,21.34
2018-12-08T08:50:12.979Z,21.31
2018-12-08T08:51:12.949Z,21.42
2018-12-08T08:52:12.915Z,21.33
2018-12-08T08:53:12.911Z,21.33
2018-12-08T08:54:12.864Z,21.36
2018-12-08T08:55:12.847Z,21.31
2018-12-08T08:56:12.898Z,21.36
2018-12-08T08:57:12.884Z,21.38
2018-12-08T08:58:12.845Z,21.38
2018-12-08T08:59:12.809Z,21.49
2018-12-08T09:00:12.761Z,21.48
2018-12-08T09:01:12.727Z,21.53
2018-12-08T09:02:12.712Z,21.55
2018-12-08T09:03:12.662Z,21.46
2018-12-08T09:04:12.657Z,21.56
2018-12-08T09:05:12.597Z,21.58
2018-12-08T09:06:12.564Z,21.53
2018-12-08T09:07:12.533Z,21.52
2018-12-08T09:08:12.496Z,21.61
2018-12-08T09:09:12.469Z,21.58
2018-12-08T09:10:12.425Z,21.68
2018-12-08T09:11:12.396Z,21.73
2018-12-08T09:12:12.356Z,21.74
2018-12-08T09:13:12.333Z,21.61
2018-12-08T09:14:13.287Z,21.61
2018-12-08T09:15:12.283Z,21.68
2018-12-08T09:16:12.252Z,21.63
2018-12-08T09:17:12.220Z,21.64
2018-12-08T09:18:12.206Z,21.61
2018-12-08T09:19:12.167Z,21.59
2018-12-08T09:20:12.127Z,21.61
2018-12-08T09:21:12.084Z,21.63
2018-12-08T09:22:12.063Z,21.66
2018-12-08T09:23:12.016Z,21.70
2018-12-08T09:24:11.998Z,21.68
2018-12-08T09:25:11.973Z,21.68
2018-12-08T09:26:11.946Z,21.67
2018-12-08T09:27:11.906Z,21.67
2018-12-08T09:28:11.872Z,21.66
2018-12-08T09:29:11.852Z,21.71
2018-12-08T09:30:11.792Z,21.71
2018-12-08T09:31:11.763Z,21.68
2018-12-08T09:32:11.725Z,21.68
2018-12-08T09:33:11.684Z,21.81
2018-12-08T09:34:11.675Z,21.77
2018-12-08T09:35:11.631Z,21.89
2018-12-08T09:36:11.608Z,21.96
2018-12-08T09:37:11.791Z,22.02
2018-12-08T09:38:11.533Z,22.05
2018-12-08T09:39:11.546Z,21.98
2018-12-08T09:40:11.527Z,22.05
2018-12-08T09:41:11.428Z,22.08
2018-12-08T09:42:11.386Z,22.05
2018-12-08T09:43:11.352Z,22.06
2018-12-08T09:44:11.336Z,22.06
2018-12-08T09:45:11.299Z,22.08
2018-12-08T09:46:11.255Z,22.06
2018-12-08T09:47:11.228Z,22.12
2018-12-08T09:48:11.201Z,22.05
2018-12-08T09:49:11.184Z,21.98
2018-12-08T09:50:11.127Z,22.01
2018-12-08T09:51:11.098Z,21.98
2018-12-08T09:52:11.065Z,21.98
2018-12-08T09:53:11.040Z,22.01
2018-12-08T09:54:11.028Z,21.85
2018-12-08T09:55:10.990Z,21.79
2018-12-08T09:56:11.004Z,21.75
2018-12-08T09:57:10.931Z,21.64
2018-12-08T09:58:10.892Z,21.75
2018-12-08T09:59:10.883Z,21.67
2018-12-08T10:00:10.826Z,21.70
2018-12-08T10:01:10.791Z,21.70
2018-12-08T10:02:10.766Z,21.70
2018-12-08T10:03:10.733Z,21.64
2018-12-08T10:04:10.705Z,21.73
2018-12-08T10:05:10.668Z,21.66
2018-12-08T10:06:10.640Z,21.68
2018-12-08T10:07:10.601Z,21.74
2018-12-08T10:08:10.558Z,21.71
2018-12-08T10:09:10.547Z,21.63
2018-12-08T10:10:10.514Z,21.64
2018-12-08T10:11:10.473Z,21.68
2018-12-08T10:12:10.435Z,21.70
2018-12-08T10:13:10.408Z,21.70
2018-12-08T10:14:10.385Z,21.68
2018-12-08T10:15:10.331Z,21.68
2018-12-08T10:16:10.290Z,21.66
2018-12-08T10:17:10.261Z,21.70
2018-12-08T10:18:10.235Z,21.66
2018-12-08T10:19:10.214Z,21.59
2018-12-08T10:20:10.158Z,21.68
2018-12-08T10:21:17.154Z,21.59
2018-12-08T10:22:10.090Z,21.61
2018-12-08T10:23:10.052Z,21.63
2018-12-08T10:24:10.048Z,21.64
2018-12-08T10:25:09.997Z,21.64
2018-12-08T10:26:09.960Z,21.63
2018-12-08T10:27:09.926Z,21.59
2018-12-08T10:28:09.908Z,21.59
2018-12-08T10:29:09.903Z,21.64
2018-12-08T10:30:09.890Z,21.66
2018-12-08T10:31:09.853Z,21.63
2018-12-08T10:32:09.826Z,21.58
2018-12-08T10:33:09.779Z,21.46
2018-12-08T10:34:09.735Z,21.55
2018-12-08T10:35:09.715Z,21.52
2018-12-08T10:36:09.673Z,21.56
2018-12-08T10:37:09.652Z,21.63
2018-12-08T10:38:09.614Z,21.58
2018-12-08T10:39:09.588Z,21.59
2018-12-08T10:40:09.571Z,21.51
2018-12-08T10:41:09.520Z,21.63
2018-12-08T10:42:09.487Z,21.58
2018-12-08T10:43:09.456Z,21.53
2018-12-08T10:44:09.420Z,21.53
2018-12-08T10:45:09.413Z,21.56
2018-12-08T10:46:09.377Z,21.49
2018-12-08T10:47:09.353Z,21.52
2018-12-08T10:48:09.316Z,21.49
2018-12-08T10:49:09.285Z,21.55
2018-12-08T10:50:09.261Z,21.51
2018-12-08T10:51:09.221Z,21.63
2018-12-08T10:52:09.178Z,21.43
2018-12-08T10:53:09.145Z,21.63
2018-12-08T10:54:09.110Z,21.71
2018-12-08T10:55:09.098Z,21.66
2018-12-08T10:56:09.047Z,21.77
2018-12-08T10:57:09.018Z,21.81
2018-12-08T10:58:08.992Z,21.81
2018-12-08T10:59:08.964Z,21.77
2018-12-08T11:00:08.928Z,21.73
2018-12-08T11:01:08.915Z,21.79
2018-12-08T11:02:08.904Z,21.85
2018-12-08T11:03:08.847Z,22.01
2018-12-08T11:04:08.845Z,21.99
2018-12-08T11:05:08.800Z,22.04
2018-12-08T11:06:08.793Z,21.98
2018-12-08T11:07:08.737Z,22.05
2018-12-08T11:08:08.712Z,22.08
2018-12-08T11:09:08.688Z,22.09
2018-12-08T11:10:08.655Z,22.05
2018-12-08T11:11:08.637Z,22.17
2018-12-08T11:12:08.594Z,22.12
2018-12-08T11:13:08.559Z,22.23
2018-12-08T11:14:08.526Z,22.21
2018-12-08T11:15:08.496Z,22.17
2018-12-08T11:16:08.474Z,22.19
2018-12-08T11:17:08.446Z,22.23
2018-12-08T11:18:08.403Z,22.23
2018-12-08T11:19:08.365Z,22.20
2018-12-08T11:20:08.342Z,22.27
2018-12-08T11:21:08.316Z,22.35
2018-12-08T11:22:08.277Z,22.24
2018-12-08T11:23:08.236Z,22.31
2018-12-08T11:24:08.211Z,22.33
2018-12-08T11:25:08.172Z,22.20
2018-12-08T11:26:08.250Z,22.30
2018-12-08T11:27:08.111Z,22.27
2018-12-08T11:28:08.108Z,22.27
2018-12-08T11:29:08.141Z,22.27
2018-12-08T11:30:07.998Z,22.20
2018-12-08T11:31:07.973Z,22.21
2018-12-08T11:32:07.930Z,22.20
2018-12-08T11:33:07.887Z,22.23
2018-12-08T11:34:07.852Z,22.19
2018-12-08T11:35:07.821Z,22.21
2018-12-08T11:36:07.797Z,22.24
2018-12-08T11:37:07.750Z,22.19
2018-12-08T11:38:07.706Z,22.14
2018-12-08T11:39:07.676Z,22.29
2018-12-08T11:40:07.648Z,22.26
2018-12-08T11:41:07.631Z,22.23
2018-12-08T11:42:07.574Z,22.23
2018-12-08T11:43:07.546Z,22.20
2018-12-08T11:44:07.508Z,22.24
2018-12-08T11:45:07.481Z,22.23
2018-12-08T11:46:07.461Z,22.11
2018-12-08T11:47:07.429Z,22.19
2018-12-08T11:48:07.394Z,22.20
2018-12-08T11:49:07.356Z,22.27
2018-12-08T11:50:07.325Z,22.21
2018-12-08T11:51:07.311Z,22.27
2018-12-08T11:52:07.259Z,22.23
2018-12-08T11:53:07.223Z,22.24
2018-12-08T11:54:07.187Z,22.12
2018-12-08T11:55:07.153Z,22.19
2018-12-08T11:56:07.128Z,22.14
2018-12-08T11:57:07.089Z,22.06
2018-12-08T11:58:07.046Z,22.09
2018-12-08T11:59:07.011Z,22.12
2018-12-08T12:00:06.988Z,22.14
2018-12-08T12:01:06.989Z,22.19
2018-12-08T12:02:06.949Z,22.05
2018-12-08T12:03:06.912Z,22.06
2018-12-08T12:04:06.882Z,21.94
2018-12-08T12:05:06.841Z,22.04
2018-12-08T12:06:06.807Z,22.01
2018-12-08T12:07:06.797Z,22.05
2018-12-08T12:08:06.745Z,22.09
2018-12-08T12:09:06.711Z,22.08
2018-12-08T12:10:06.684Z,22.05
2018-12-08T12:11:06.652Z,22.04
2018-12-08T12:12:06.631Z,22.09
2018-12-08T12:13:06.576Z,22.08
2018-12-08T12:14:06.546Z,22.04
2018-12-08T12:15:06.507Z,22.02
2018-12-08T12:16:06.471Z,22.02
2018-12-08T12:17:06.464Z,22.14
2018-12-08T12:18:06.430Z,22.31
2018-12-08T12:19:06.391Z,22.23
2018-12-08T12:20:06.380Z,22.33
2018-12-08T12:21:06.339Z,22.20
2018-12-08T12:22:06.316Z,22.27
2018-12-08T12:23:06.266Z,22.23
2018-12-08T12:24:06.225Z,22.30
2018-12-08T12:25:06.189Z,22.21
2018-12-08T12:26:06.153Z,22.24
2018-12-08T12:27:06.154Z,22.30
2018-12-08T12:28:06.078Z,22.29
2018-12-08T12:29:06.051Z,22.49
2018-12-08T12:30:06.011Z,22.76
2018-12-08T12:31:05.981Z,22.88
2018-12-08T12:32:05.960Z,23.04
2018-12-08T12:33:05.906Z,22.82
2018-12-08T12:34:05.876Z,22.63
2018-12-08T12:35:05.847Z,22.48
2018-12-08T12:36:05.815Z,22.35
2018-12-08T12:37:05.810Z,22.30
2018-12-08T12:38:05.735Z,22.20
2018-12-08T12:39:05.694Z,22.15
2018-12-08T12:40:05.663Z,22.23
2018-12-08T12:41:05.624Z,22.27
2018-12-08T12:42:05.601Z,22.21
2018-12-08T12:43:05.542Z,22.24
2018-12-08T12:44:05.511Z,22.20
2018-12-08T12:45:05.477Z,22.23
2018-12-08T12:46:05.447Z,22.29
2018-12-08T12:47:05.425Z,22.17
2018-12-08T12:48:05.381Z,22.14
2018-12-08T12:49:05.364Z,22.21
2018-12-08T12:50:05.359Z,22.17
2018-12-08T12:51:05.338Z,22.02
2018-12-08T12:52:05.322Z,22.06